createdAt,value
2023-05-04T00:00:12.724Z,18.30
2023-05-04T00:03:00.414Z,20.13
2023-05-04T00:05:27.452Z,19.73
2023-05-04T00:07:54.526Z,24.63
2023-05-04T00:10:21.430Z,21.80
2023-05-04T00:12:48.487Z,22.80
2023-05-04T00:15:15.556Z,20.23
2023-05-04T00:17:42.537Z,18.00
2023-05-04T00:20:10.134Z,18.80
2023-05-04T00:22:37.130Z,19.50
2023-05-04T00:25:04.070Z,18.33
2023-05-04T00:27:31.193Z,20.33
2023-05-04T00:29:57.935Z,22.87
2023-05-04T00:32:24.981Z,17.93
2023-05-04T00:34:52.046Z,18.77
2023-05-04T00:37:21.227Z,23.67
2023-05-04T00:39:47.975Z,18.30
2023-05-04T00:42:14.997Z,19.30
2023-05-04T00:44:41.912Z,19.97
2023-05-04T00:47:09.538Z,18.63
2023-05-04T00:49:36.509Z,16.57
2023-05-04T00:52:05.392Z,16.73
2023-05-04T00:54:33.028Z,24.30
2023-05-04T00:57:00.031Z,15.87
2023-05-04T00:59:26.773Z,17.53
2023-05-04T01:01:53.744Z,17.53
2023-05-04T01:04:20.779Z,20.67
2023-05-04T01:07:03.448Z,15.43
2023-05-04T01:09:37.909Z,19.30
2023-05-04T01:12:16.852Z,16.97
2023-05-04T01:14:44.620Z,18.07
2023-05-04T01:17:11.914Z,20.97
2023-05-04T01:19:38.941Z,20.93
2023-05-04T01:22:06.113Z,18.70
2023-05-04T01:24:33.284Z,19.70
2023-05-04T01:27:04.665Z,21.97
2023-05-04T01:29:48.748Z,15.67
2023-05-04T01:32:18.570Z,15.67
2023-05-04T01:34:45.634Z,15.57
2023-05-04T01:37:37.342Z,15.90
2023-05-04T01:40:05.498Z,20.30
2023-05-04T01:42:32.847Z,13.73
2023-05-04T01:44:59.592Z,15.80
2023-05-04T01:47:26.777Z,13.20
2023-05-04T01:49:53.477Z,13.23
2023-05-04T01:52:20.519Z,14.33
2023-05-04T01:54:47.307Z,18.23
2023-05-04T01:57:14.377Z,21.60
2023-05-04T01:59:41.962Z,16.70
2023-05-04T02:02:09.077Z,15.70
2023-05-04T02:04:35.967Z,14.83
2023-05-04T02:07:02.983Z,15.03
2023-05-04T02:09:29.685Z,15.57
2023-05-04T02:11:56.745Z,18.33
2023-05-04T02:14:24.276Z,16.20
2023-05-04T02:16:51.381Z,17.53
2023-05-04T02:19:18.084Z,15.83
2023-05-04T02:21:45.246Z,20.47
2023-05-04T02:24:12.068Z,16.63
2023-05-04T02:26:39.125Z,16.07
2023-05-04T02:29:06.293Z,14.30
2023-05-04T02:31:34.008Z,17.83
2023-05-04T02:34:01.456Z,14.83
2023-05-04T02:36:28.482Z,17.57
2023-05-04T02:38:56.015Z,17.33
2023-05-04T02:41:23.092Z,17.47
2023-05-04T02:43:51.825Z,14.70
2023-05-04T02:46:20.199Z,15.47
2023-05-04T02:48:47.071Z,16.53
2023-05-04T02:51:14.124Z,16.50
2023-05-04T02:53:40.905Z,14.80
2023-05-04T02:56:08.382Z,14.17
2023-05-04T02:58:35.204Z,18.40
2023-05-04T03:01:02.365Z,16.73
2023-05-04T03:03:29.196Z,19.43
2023-05-04T03:05:56.149Z,15.33
2023-05-04T03:08:22.862Z,21.53
2023-05-04T03:10:49.864Z,16.30
2023-05-04T03:13:16.806Z,24.50
2023-05-04T03:15:43.842Z,19.33
2023-05-04T03:18:10.683Z,19.83
2023-05-04T03:20:38.172Z,17.40
2023-05-04T03:23:04.905Z,14.60
2023-05-04T03:25:31.980Z,17.00
2023-05-04T03:27:59.180Z,18.17
2023-05-04T03:30:26.473Z,16.03
2023-05-04T03:32:56.853Z,19.17
2023-05-04T03:35:25.300Z,15.00
2023-05-04T03:37:54.474Z,19.00
2023-05-04T03:40:23.191Z,17.00
2023-05-04T03:42:55.210Z,18.20
2023-05-04T03:45:23.635Z,15.03
2023-05-04T03:47:51.334Z,18.70
2023-05-04T03:50:21.535Z,14.53
2023-05-04T03:52:49.798Z,15.33
2023-05-04T03:55:19.486Z,18.47
2023-05-04T03:57:49.561Z,20.57
2023-05-04T04:00:17.261Z,17.40
2023-05-04T04:02:51.499Z,18.57
2023-05-04T04:05:20.023Z,15.20
2023-05-04T04:07:48.719Z,16.70
2023-05-04T04:10:15.876Z,15.13
2023-05-04T04:12:42.577Z,16.30
2023-05-04T04:15:09.951Z,18.30
2023-05-04T04:17:36.726Z,20.57
2023-05-04T04:20:04.282Z,17.40
2023-05-04T04:22:31.231Z,14.07
2023-05-04T04:24:58.319Z,14.60
2023-05-04T04:27:25.166Z,20.20
2023-05-04T04:29:52.157Z,15.50
2023-05-04T04:32:19.455Z,16.30
2023-05-04T04:34:46.432Z,16.20
2023-05-04T04:37:13.243Z,18.83
2023-05-04T04:39:40.245Z,15.90
2023-05-04T04:42:07.314Z,17.77
2023-05-04T04:44:34.851Z,18.87
2023-05-04T04:47:01.971Z,16.77
2023-05-04T04:49:29.057Z,14.77
2023-05-04T04:51:55.912Z,19.90
2023-05-04T04:54:22.892Z,20.47
2023-05-04T04:56:49.578Z,19.77
2023-05-04T04:59:17.323Z,23.90
2023-05-04T05:01:44.061Z,17.13
2023-05-04T05:04:11.079Z,21.17
2023-05-04T05:06:38.441Z,23.33
2023-05-04T05:09:05.436Z,21.50
2023-05-04T05:11:32.630Z,20.93
2023-05-04T05:13:59.969Z,16.90
2023-05-04T05:16:27.120Z,21.17
2023-05-04T05:18:54.301Z,26.23
2023-05-04T05:21:21.021Z,21.27
2023-05-04T05:23:48.114Z,19.30
2023-05-04T05:26:14.953Z,19.90
2023-05-04T05:28:42.086Z,21.10
2023-05-04T05:31:08.844Z,22.07
2023-05-04T05:33:35.877Z,21.70
2023-05-04T05:36:03.510Z,24.80
2023-05-04T05:38:30.462Z,23.20
2023-05-04T05:40:57.183Z,23.30
2023-05-04T05:43:24.492Z,37.13
2023-05-04T05:45:51.259Z,35.57
2023-05-04T05:48:18.335Z,27.57
2023-05-04T05:50:45.106Z,23.90
2023-05-04T05:53:12.086Z,29.60
2023-05-04T05:55:38.762Z,29.43
2023-05-04T05:58:05.822Z,32.40
2023-05-04T06:00:32.587Z,24.97
2023-05-04T06:02:59.638Z,23.87
2023-05-04T06:05:26.816Z,26.00
2023-05-04T06:07:53.820Z,22.43
2023-05-04T06:10:20.666Z,24.23
2023-05-04T06:12:47.813Z,23.77
2023-05-04T06:15:15.049Z,26.07
2023-05-04T06:17:42.269Z,24.23
2023-05-04T06:20:09.304Z,24.03
2023-05-04T06:22:36.548Z,26.57
2023-05-04T06:25:06.052Z,31.73
2023-05-04T06:27:35.132Z,29.57
2023-05-04T06:30:01.873Z,28.57
2023-05-04T06:32:28.974Z,26.63
2023-05-04T06:34:56.004Z,35.27
2023-05-04T06:37:23.291Z,25.27
2023-05-04T06:39:50.080Z,20.42
2023-05-04T06:42:17.134Z,17.40
2023-05-04T06:44:47.853Z,24.00
2023-05-04T06:47:15.842Z,19.10
2023-05-04T06:49:42.537Z,18.08
2023-05-04T06:52:10.042Z,18.80
2023-05-04T06:54:36.726Z,19.25
2023-05-04T06:57:04.411Z,15.90
2023-05-04T06:59:31.289Z,18.27
2023-05-04T07:01:58.268Z,16.98
2023-05-04T07:04:25.142Z,22.95
2023-05-04T07:06:52.332Z,21.10
2023-05-04T07:09:19.885Z,15.63
2023-05-04T07:11:48.531Z,13.07
2023-05-04T07:14:16.272Z,19.27
2023-05-04T07:16:43.599Z,13.00
2023-05-04T07:19:10.522Z,12.88
2023-05-04T07:21:37.726Z,16.38
2023-05-04T07:24:05.241Z,12.68
2023-05-04T07:26:32.278Z,11.65
2023-05-04T07:28:59.042Z,18.80
2023-05-04T07:31:27.464Z,41.30
2023-05-04T07:33:55.646Z,12.20
2023-05-04T07:36:24.838Z,11.35
2023-05-04T07:38:51.607Z,13.65
2023-05-04T07:41:18.579Z,15.18
2023-05-04T07:43:45.901Z,12.07
2023-05-04T07:46:13.657Z,12.50
2023-05-04T07:48:40.500Z,13.43
2023-05-04T07:51:12.806Z,20.80
2023-05-04T07:53:39.506Z,11.85
2023-05-04T07:56:11.488Z,14.00
2023-05-04T07:58:38.291Z,10.70
2023-05-04T08:01:05.370Z,12.60
2023-05-04T08:03:32.274Z,13.20
2023-05-04T08:05:59.263Z,12.73
2023-05-04T08:08:25.985Z,13.43
2023-05-04T08:10:53.518Z,15.27
2023-05-04T08:13:20.858Z,10.35
2023-05-04T08:15:47.952Z,10.77
2023-05-04T08:18:14.698Z,13.20
2023-05-04T08:20:42.012Z,11.48
2023-05-04T08:23:09.110Z,15.70
2023-05-04T08:25:36.184Z,9.95
2023-05-04T08:28:02.879Z,16.30
2023-05-04T08:30:31.307Z,14.18
2023-05-04T08:32:59.289Z,10.40
2023-05-04T08:35:27.896Z,16.35
2023-05-04T08:37:54.853Z,11.05
2023-05-04T08:40:24.101Z,11.80
2023-05-04T08:42:52.262Z,49.38
2023-05-04T08:45:19.336Z,8.65
2023-05-04T08:47:46.400Z,8.98
2023-05-04T08:50:13.694Z,10.70
2023-05-04T08:52:48.880Z,7.90
2023-05-04T08:55:17.237Z,12.15
2023-05-04T08:57:44.552Z,11.40
2023-05-04T09:00:15.724Z,15.05
2023-05-04T09:02:44.246Z,9.45
2023-05-04T09:05:12.015Z,11.88
2023-05-04T09:07:38.846Z,12.98
2023-05-04T09:10:06.454Z,13.45
2023-05-04T09:12:33.576Z,7.65
2023-05-04T09:15:02.683Z,8.10
2023-05-04T09:17:29.772Z,6.30
2023-05-04T09:20:05.969Z,13.10
2023-05-04T09:22:33.455Z,7.90
2023-05-04T09:25:13.747Z,11.65
2023-05-04T09:27:42.686Z,10.70
2023-05-04T09:30:12.662Z,14.35
2023-05-04T09:32:46.702Z,10.70
2023-05-04T09:35:25.648Z,5.95
2023-05-04T09:37:59.887Z,10.23
2023-05-04T09:40:35.517Z,8.88
2023-05-04T09:43:02.651Z,5.90
2023-05-04T09:45:42.832Z,9.65
2023-05-04T09:48:20.017Z,9.00
2023-05-04T09:50:55.085Z,8.52
2023-05-04T09:53:29.061Z,10.77
2023-05-04T09:56:11.260Z,17.92
2023-05-04T09:58:40.182Z,5.60
2023-05-04T10:01:08.125Z,11.50
2023-05-04T10:03:35.261Z,6.10
2023-05-04T10:06:05.950Z,8.70
2023-05-04T10:08:33.148Z,9.05
2023-05-04T10:11:00.167Z,10.57
2023-05-04T10:13:26.925Z,8.10
2023-05-04T10:16:16.195Z,11.13
2023-05-04T10:19:02.171Z,5.13
2023-05-04T10:21:47.518Z,5.15
2023-05-04T10:24:29.423Z,8.32
2023-05-04T10:27:04.642Z,12.52
2023-05-04T10:29:35.548Z,6.25
2023-05-04T10:32:03.331Z,7.32
2023-05-04T10:34:32.310Z,5.05
2023-05-04T10:37:00.987Z,6.35
2023-05-04T10:39:33.504Z,4.75
2023-05-04T10:42:05.614Z,4.85
2023-05-04T10:44:48.479Z,7.43
2023-05-04T10:47:16.113Z,12.23
2023-05-04T10:49:42.946Z,6.47
2023-05-04T10:52:16.886Z,8.80
2023-05-04T10:54:44.421Z,11.23
2023-05-04T10:57:13.648Z,8.32
2023-05-04T10:59:41.310Z,11.95
2023-05-04T11:02:08.898Z,16.85
2023-05-04T11:04:36.327Z,7.55
2023-05-04T11:07:05.932Z,17.08
2023-05-04T11:09:38.253Z,5.78
2023-05-04T11:12:06.812Z,6.70
2023-05-04T11:14:37.775Z,5.50
2023-05-04T11:17:26.711Z,7.15
2023-05-04T11:19:54.039Z,4.25
2023-05-04T11:22:21.255Z,7.53
2023-05-04T11:24:51.515Z,5.07
2023-05-04T11:27:29.210Z,10.43
2023-05-04T11:30:00.987Z,9.23
2023-05-04T11:32:40.496Z,10.27
2023-05-04T11:35:25.040Z,9.70
2023-05-04T11:37:52.846Z,5.00
2023-05-04T11:40:22.398Z,5.72
2023-05-04T11:42:50.147Z,11.50
2023-05-04T11:45:18.995Z,6.80
2023-05-04T11:47:47.753Z,8.05
2023-05-04T11:50:16.729Z,4.30
2023-05-04T11:52:44.661Z,4.95
2023-05-04T11:55:14.049Z,6.35
2023-05-04T11:57:41.143Z,8.38
2023-05-04T12:00:09.480Z,9.88
2023-05-04T12:02:36.582Z,10.98
2023-05-04T12:05:04.043Z,6.03
2023-05-04T12:07:37.327Z,8.70
2023-05-04T12:10:04.268Z,4.97
2023-05-04T12:12:35.877Z,6.68
2023-05-04T12:15:02.645Z,6.43
2023-05-04T12:17:39.822Z,7.65
2023-05-04T12:20:07.435Z,6.35
2023-05-04T12:22:35.834Z,16.73
2023-05-04T12:25:02.695Z,6.70
2023-05-04T12:27:29.842Z,6.75
2023-05-04T12:29:56.598Z,6.65
2023-05-04T12:32:23.693Z,8.73
2023-05-04T12:34:50.531Z,8.45
2023-05-04T12:37:17.764Z,8.32
2023-05-04T12:39:44.603Z,7.30
2023-05-04T12:42:11.573Z,61.88
2023-05-04T12:44:38.417Z,24.02
2023-05-04T12:47:05.528Z,8.25
2023-05-04T12:49:32.360Z,24.45
2023-05-04T12:51:59.392Z,9.18
2023-05-04T12:54:26.132Z,6.72
2023-05-04T12:56:53.453Z,4.90
2023-05-04T12:59:20.413Z,5.78
2023-05-04T13:01:47.784Z,8.85
2023-05-04T13:04:14.910Z,9.45
2023-05-04T13:06:42.776Z,9.95
2023-05-04T13:09:10.086Z,5.57
2023-05-04T13:11:37.116Z,6.55
2023-05-04T13:14:04.029Z,21.45
2023-05-04T13:16:31.136Z,12.20
2023-05-04T13:18:58.132Z,6.22
2023-05-04T13:21:25.330Z,6.70
2023-05-04T13:23:52.243Z,7.30
2023-05-04T13:26:19.277Z,5.80
2023-05-04T13:28:46.233Z,8.18
2023-05-04T13:31:13.804Z,5.15
2023-05-04T13:33:41.405Z,8.85
2023-05-04T13:36:08.654Z,4.95
2023-05-04T13:38:35.450Z,9.13
2023-05-04T13:41:02.410Z,7.85
2023-05-04T13:43:29.155Z,10.95
2023-05-04T13:45:57.241Z,12.15
2023-05-04T13:48:26.306Z,9.48
2023-05-04T13:50:53.517Z,8.60
2023-05-04T13:53:20.239Z,6.75
2023-05-04T13:55:47.303Z,8.25
2023-05-04T13:58:14.099Z,6.53
2023-05-04T14:00:41.208Z,9.70
2023-05-04T14:03:08.025Z,6.53
2023-05-04T14:05:35.756Z,14.77
2023-05-04T14:08:02.935Z,6.70
2023-05-04T14:10:30.005Z,9.35
2023-05-04T14:12:56.754Z,9.68
2023-05-04T14:15:23.938Z,12.13
2023-05-04T14:17:50.765Z,9.55
2023-05-04T14:20:18.283Z,12.82
2023-05-04T14:22:45.380Z,8.68
2023-05-04T14:25:13.117Z,8.40
2023-05-04T14:27:40.051Z,33.00
2023-05-04T14:30:09.460Z,14.90
2023-05-04T14:32:36.705Z,5.05
2023-05-04T14:35:09.077Z,8.48
2023-05-04T14:37:38.060Z,3.38
2023-05-04T14:40:06.691Z,7.30
2023-05-04T14:42:34.025Z,5.40
2023-05-04T14:45:01.044Z,8.15
2023-05-04T14:47:28.753Z,6.88
2023-05-04T14:49:56.043Z,9.05
2023-05-04T14:52:23.024Z,7.28
2023-05-04T14:54:49.971Z,6.18
2023-05-04T14:57:16.983Z,26.63
2023-05-04T14:59:44.041Z,20.63
2023-05-04T15:02:12.469Z,9.00
2023-05-04T15:04:39.654Z,5.22
2023-05-04T15:07:06.409Z,4.35
2023-05-04T15:09:33.434Z,7.00
2023-05-04T15:12:00.252Z,8.27
2023-05-04T15:14:27.310Z,8.02
2023-05-04T15:16:54.039Z,5.00
2023-05-04T15:19:21.643Z,10.55
2023-05-04T15:21:49.363Z,5.97
2023-05-04T15:24:16.453Z,5.80
2023-05-04T15:26:43.175Z,7.65
2023-05-04T15:29:10.325Z,7.35
2023-05-04T15:31:38.369Z,9.02
2023-05-04T15:34:05.383Z,6.15
2023-05-04T15:36:32.133Z,4.68
2023-05-04T15:38:59.186Z,8.52
2023-05-04T15:41:27.554Z,8.73
2023-05-04T15:43:54.792Z,6.35
2023-05-04T15:46:21.567Z,8.35
2023-05-04T15:48:48.598Z,13.23
2023-05-04T15:51:15.431Z,6.95
2023-05-04T15:53:42.556Z,6.50
2023-05-04T15:56:09.350Z,8.98
2023-05-04T15:58:36.338Z,6.07
2023-05-04T16:01:04.221Z,10.00
2023-05-04T16:03:32.015Z,5.78
2023-05-04T16:05:59.065Z,12.05
2023-05-04T16:08:26.247Z,10.60
2023-05-04T16:10:53.624Z,6.50
2023-05-04T16:13:20.924Z,33.10
2023-05-04T16:15:51.646Z,5.40
2023-05-04T16:18:19.227Z,8.65
2023-05-04T16:20:47.231Z,5.97
2023-05-04T16:23:16.746Z,8.63
2023-05-04T16:25:43.975Z,4.35
2023-05-04T16:28:11.268Z,6.88
2023-05-04T16:30:38.379Z,8.02
2023-05-04T16:33:05.484Z,7.00
2023-05-04T16:35:32.382Z,5.82
2023-05-04T16:37:59.617Z,5.63
2023-05-04T16:40:28.157Z,6.78
2023-05-04T16:42:55.182Z,4.25
2023-05-04T16:45:24.724Z,7.50
2023-05-04T16:47:52.123Z,7.22
2023-05-04T16:50:18.934Z,5.47
2023-05-04T16:52:46.730Z,9.80
2023-05-04T16:55:13.583Z,10.27
2023-05-04T16:57:41.366Z,8.55
2023-05-04T17:00:09.113Z,6.40
2023-05-04T17:02:36.496Z,8.70
2023-05-04T17:05:06.620Z,6.60
2023-05-04T17:07:34.161Z,4.22
2023-05-04T17:10:01.006Z,5.43
2023-05-04T17:12:28.882Z,9.43
2023-05-04T17:14:55.907Z,5.78
2023-05-04T17:17:23.097Z,6.72
2023-05-04T17:19:49.908Z,7.68
2023-05-04T17:22:17.453Z,30.42
2023-05-04T17:24:45.542Z,16.33
2023-05-04T17:27:13.154Z,21.92
2023-05-04T17:29:41.070Z,21.67
2023-05-04T17:32:08.600Z,11.23
2023-05-04T17:34:36.140Z,12.07
2023-05-04T17:37:03.701Z,9.95
2023-05-04T17:39:31.663Z,10.50
2023-05-04T17:41:58.845Z,9.88
2023-05-04T17:44:26.100Z,12.55
2023-05-04T17:46:53.671Z,13.38
2023-05-04T17:49:20.987Z,38.45
2023-05-04T17:51:49.298Z,54.40
2023-05-04T17:54:16.551Z,42.70
2023-05-04T17:56:43.789Z,29.38
2023-05-04T17:59:10.575Z,33.85
2023-05-04T18:01:37.993Z,35.55
2023-05-04T18:04:05.057Z,24.98
2023-05-04T18:06:33.083Z,41.20
2023-05-04T18:09:00.937Z,41.90
2023-05-04T18:11:28.331Z,17.65
2023-05-04T18:13:58.156Z,28.38
2023-05-04T18:16:25.353Z,22.50
2023-05-04T18:18:52.556Z,28.02
2023-05-04T18:21:19.613Z,19.20
2023-05-04T18:23:46.884Z,28.80
2023-05-04T18:26:19.254Z,21.90
2023-05-04T18:28:46.045Z,14.90
2023-05-04T18:31:13.096Z,17.38
2023-05-04T18:33:39.920Z,17.42
2023-05-04T18:36:07.024Z,18.20
2023-05-04T18:38:35.093Z,23.52
2023-05-04T18:41:02.489Z,25.70
2023-05-04T18:43:29.363Z,31.35
2023-05-04T18:45:56.551Z,26.90
2023-05-04T18:48:23.317Z,21.45
2023-05-04T18:50:53.926Z,23.73
2023-05-04T18:53:20.934Z,22.48
2023-05-04T18:55:59.548Z,43.58
2023-05-04T18:58:26.297Z,65.35
2023-05-04T19:00:53.287Z,57.50
2023-05-04T19:03:20.127Z,41.28
2023-05-04T19:05:47.182Z,36.33
2023-05-04T19:08:13.958Z,49.22
2023-05-04T19:10:41.013Z,41.03
2023-05-04T19:13:07.853Z,41.63
2023-05-04T19:15:34.872Z,46.83
2023-05-04T19:18:01.764Z,43.72
2023-05-04T19:20:28.886Z,38.40
2023-05-04T19:22:56.951Z,39.97
2023-05-04T19:25:34.259Z,39.97
2023-05-04T19:28:02.670Z,38.63
2023-05-04T19:30:29.656Z,26.63
2023-05-04T19:32:56.404Z,14.98
2023-05-04T19:35:23.470Z,11.90
2023-05-04T19:37:50.439Z,13.27
2023-05-04T19:40:18.343Z,22.08
2023-05-04T19:42:46.100Z,17.63
2023-05-04T19:45:14.113Z,18.48
2023-05-04T19:47:41.681Z,13.23
2023-05-04T19:50:10.855Z,29.17
2023-05-04T19:52:38.495Z,14.57
2023-05-04T19:55:06.587Z,13.25
2023-05-04T19:57:33.490Z,18.38
2023-05-04T20:00:00.936Z,17.70
2023-05-04T20:02:31.167Z,17.02
2023-05-04T20:04:58.419Z,14.88
2023-05-04T20:07:25.334Z,14.93
2023-05-04T20:09:52.821Z,14.77
2023-05-04T20:12:19.575Z,15.02
2023-05-04T20:14:46.612Z,17.60
2023-05-04T20:17:13.313Z,13.55
2023-05-04T20:19:42.888Z,22.38
2023-05-04T20:22:09.902Z,13.40
2023-05-04T20:24:36.981Z,20.23
2023-05-04T20:27:03.838Z,13.23
2023-05-04T20:29:30.904Z,15.35
2023-05-04T20:32:01.326Z,16.15
2023-05-04T20:34:29.056Z,15.60
2023-05-04T20:36:56.424Z,12.98
2023-05-04T20:39:23.465Z,12.02
2023-05-04T20:41:50.540Z,14.38
2023-05-04T20:44:17.646Z,8.90
2023-05-04T20:46:45.207Z,11.02
2023-05-04T20:49:12.586Z,12.90
2023-05-04T20:51:39.481Z,11.48
2023-05-04T20:54:06.628Z,12.50
2023-05-04T20:56:33.376Z,14.10
2023-05-04T20:59:00.488Z,13.57
2023-05-04T21:01:27.419Z,10.95
2023-05-04T21:03:54.664Z,15.60
2023-05-04T21:06:22.891Z,16.07
2023-05-04T21:08:49.865Z,13.47
2023-05-04T21:11:16.673Z,17.52
2023-05-04T21:13:43.646Z,13.60
2023-05-04T21:16:11.337Z,15.05
2023-05-04T21:18:38.379Z,15.80
2023-05-04T21:21:05.377Z,11.38
2023-05-04T21:23:32.607Z,15.70
2023-05-04T21:26:02.984Z,10.48
2023-05-04T21:28:31.563Z,14.77
2023-05-04T21:30:58.926Z,10.75
2023-05-04T21:33:26.244Z,12.05
2023-05-04T21:35:53.040Z,9.27
2023-05-04T21:38:21.989Z,13.55
2023-05-04T21:40:49.330Z,11.32
2023-05-04T21:43:16.436Z,10.73
2023-05-04T21:45:43.258Z,9.43
2023-05-04T21:48:10.423Z,13.68
2023-05-04T21:50:37.173Z,10.48
2023-05-04T21:53:04.217Z,11.93
2023-05-04T21:55:30.977Z,23.98
2023-05-04T21:57:57.973Z,13.07
2023-05-04T22:00:24.904Z,12.48
2023-05-04T22:02:54.972Z,10.48
2023-05-04T22:05:22.494Z,14.60
2023-05-04T22:07:50.298Z,12.85
2023-05-04T22:10:17.512Z,11.70
2023-05-04T22:12:44.627Z,14.02
2023-05-04T22:15:11.597Z,12.50
2023-05-04T22:17:38.931Z,11.98
2023-05-04T22:20:06.728Z,12.05
2023-05-04T22:22:34.038Z,9.87
2023-05-04T22:25:00.873Z,9.75
2023-05-04T22:27:27.864Z,12.63
2023-05-04T22:29:54.721Z,11.25
2023-05-04T22:32:21.721Z,11.93
2023-05-04T22:34:48.437Z,10.02
2023-05-04T22:37:15.497Z,12.77
2023-05-04T22:39:42.190Z,13.70
2023-05-04T22:42:09.182Z,12.38
2023-05-04T22:44:35.940Z,13.13
2023-05-04T22:47:03.915Z,14.52
2023-05-04T22:49:30.665Z,10.07
2023-05-04T22:51:57.697Z,13.05
2023-05-04T22:54:24.449Z,13.20
2023-05-04T22:56:51.459Z,11.65
2023-05-04T22:59:18.221Z,7.97
2023-05-04T23:01:45.346Z,14.30
2023-05-04T23:04:12.078Z,14.90
2023-05-04T23:06:39.097Z,9.60
2023-05-04T23:09:05.838Z,7.00
2023-05-04T23:11:33.357Z,14.00
2023-05-04T23:14:00.065Z,11.70
2023-05-04T23:16:27.058Z,11.10
2023-05-04T23:18:53.988Z,8.80
2023-05-04T23:21:21.102Z,10.70
2023-05-04T23:23:50.313Z,9.50
2023-05-04T23:26:17.483Z,8.00
2023-05-04T23:28:44.626Z,12.90
2023-05-04T23:31:11.700Z,12.20
2023-05-04T23:33:38.446Z,11.63
2023-05-04T23:36:06.343Z,9.23
2023-05-04T23:38:33.065Z,10.27
2023-05-04T23:41:04.188Z,13.50
2023-05-04T23:43:31.888Z,7.70
2023-05-04T23:46:00.835Z,12.33
2023-05-04T23:48:28.948Z,11.83
2023-05-04T23:51:03.625Z,12.03
2023-05-04T23:53:31.863Z,11.03
2023-05-04T23:56:02.735Z,11.43
2023-05-04T23:58:31.404Z,12.07
